EDT,Max TemperatureF,Mean TemperatureF,Min TemperatureF,Max Dew PointF,MeanDew PointF,Min DewpointF,Max Humidity, Mean Humidity, Min Humidity, Max Sea Level PressureIn, Mean Sea Level PressureIn, Min Sea Level PressureIn, Max VisibilityMiles, Mean VisibilityMiles, Min VisibilityMiles, Max Wind SpeedMPH, Mean Wind SpeedMPH, Max Gust SpeedMPH,PrecipitationIn, CloudCover, Events, WindDirDegrees
2012-10-1,71,60,50,52,49,46,89,71,50,29.94,29.78,29.72,10,10,2,18,8,28,0.01,2,,236
2012-10-2,73,60,48,61,52,46,94,85,53,30.06,29.99,29.94,10,5,0,8,1,,0.10,3,Fog-Rain,249
2012-10-3,64,63,62,63,61,59,94,92,87,30.15,30.09,30.03,9,3,1,7,2,,0.02,8,,43
2012-10-4,64,62,60,61,60,59,100,93,87,30.16,30.11,30.03,8,3,0,5,2,,0.03,8,Fog-Rain,20
2012-10-5,79,66,55,60,57,52,97,80,43,30.03,29.98,29.92,10,5,0,9,2,,0.01,1,Fog,286
2012-10-6,81,65,50,63,53,45,94,83,47,29.94,29.84,29.70,10,5,0,16,2,25,0.02,3,Fog-Rain-Thunderstorm,234
2012-10-7,60,48,37,49,41,36,93,83,47,30.06,30.01,29.95,10,5,0,7,1,,0.09,3,Fog-Rain,266
2012-10-8,59,47,37,46,42,35,93,77,53,30.30,30.19,30.07,10,7,0,6,1,,0.03,4,Fog,295
2012-10-9,61,53,46,52,47,42,90,75,60,30.30,30.21,30.12,10,10,10,12,4,17,0.00,7,,53
2012-10-10,64,58,51,61,55,47,94,87,74,30.11,29.91,29.72,10,6,2,9,4,,0.16,7,Rain,35
2012-10-11,61,48,35,43,36,33,93,66,39,30.14,30.05,29.82,10,9,0,16,7,26,0.00,0,Fog,260
2012-10-12,57,46,33,41,33,25,93,67,35,30.38,30.13,30.01,10,9,2,15,4,23,0.03,2,Rain,311
2012-10-13,54,40,25,33,25,20,85,58,29,30.47,30.40,30.34,10,10,10,9,2,21,0.00,0,,259
2012-10-14,70,57,44,55,48,35,86,71,51,30.30,30.09,29.96,10,10,5,14,4,24,0.08,4,Rain,197
2012-10-15,77,68,62,63,60,55,90,76,56,29.93,29.72,29.59,10,10,8,20,9,32,0.01,4,Rain,198
2012-10-16,63,50,35,63,44,32,90,69,39,29.88,29.67,29.57,10,10,5,20,7,31,0.06,4,Rain,285
2012-10-17,64,46,28,40,31,26,93,74,28,30.00,29.93,29.89,10,8,1,7,1,,0.00,0,,311
2012-10-18,69,51,33,47,39,31,93,79,36,30.12,30.06,30.01,10,6,0,9,1,,0.00,2,Fog,171
2012-10-19,73,59,46,66,59,43,90,81,55,30.07,29.87,29.73,10,8,2,16,5,25,0.11,8,Rain,141
2012-10-20,77,68,57,66,62,42,94,83,32,29.76,29.69,29.61,10,7,0,13,2,25,0.43,6,Fog-Rain-Thunderstorm,210
2012-10-21,66,52,39,42,39,37,93,66,34,29.89,29.84,29.77,10,9,1,14,5,25,0.00,1,,267
2012-10-22,68,54,41,44,40,36,86,62,36,30.01,29.93,29.89,10,10,10,18,6,31,0.00,1,,272
2012-10-23,68,50,35,48,41,33,93,69,37,30.11,30.06,30.02,10,8,2,10,2,17,0.00,1,,309
2012-10-24,57,51,41,48,39,35,89,61,47,30.22,30.17,30.13,10,10,7,6,2,,0.00,7,,28
2012-10-25,66,50,35,43,36,24,96,77,20,30.30,30.25,30.22,10,5,0,5,0,,0.00,3,Fog,270
2012-10-26,70,54,37,53,42,35,93,80,54,30.26,30.21,30.12,10,6,0,8,1,,0.00,1,Fog,201
2012-10-27,69,54,41,54,45,37,93,84,59,30.12,30.07,30.00,10,5,0,9,1,,0.00,4,Fog,39
2012-10-28,59,55,53,52,51,48,94,85,75,30.00,29.90,29.75,10,6,1,18,9,31,0.18,8,Rain,49
2012-10-29,64,60,55,61,56,51,94,89,82,29.73,29.40,29.17,10,4,1,33,18,54,1.66,8,Rain,68
2012-10-30,69,61,53,60,57,51,96,85,58,29.57,29.48,29.31,10,7,0,13,7,20,0.54,6,Fog-Rain-Thunderstorm,130
2012-10-31,57,54,48,54,49,40,100,83,64,29.57,29.51,29.45,10,8,1,12,2,18,0.13,5,Rain,198